Terminal Aerodrome Forecast
Issued by NWS

Home | Current Version | Previous Version | Text Only | Print | Product List | Glossary On
Versions: 1 2 3 4 5 6 7 8 9 10 11 12 13 14 15 16 17
000
FTUS44 KOUN 282320
TAFPNC
TAF
KPNC 282320Z 2900/2924 16007KT P6SM FEW100
     FM290800 15006KT 4SM BR SCT030
     FM291400 18008KT P6SM BKN020 PROB30 2915/2919 6SM -TSRA BR
      OVC015CB
     FM292000 17009KT P6SM BKN250=

USA.gov is the U.S. government's official web portal to all federal, state and local government web resources and services.